createdAt,value
2019-02-20T00:01:37.047Z,6.32
2019-02-20T00:07:02.613Z,6.30
2019-02-20T00:10:01.233Z,6.24
2019-02-20T00:15:06.329Z,6.22
2019-02-20T00:17:33.984Z,6.19
2019-02-20T00:20:27.659Z,6.16
2019-02-20T00:24:00.501Z,6.16
2019-02-20T00:25:43.357Z,6.13
2019-02-20T00:28:29.658Z,6.12
2019-02-20T00:31:16.093Z,6.08
2019-02-20T00:33:43.717Z,6.08
2019-02-20T00:36:30.071Z,6.06
2019-02-20T00:38:59.427Z,6.03
2019-02-20T00:41:46.107Z,6.05
2019-02-20T00:44:32.793Z,6.04
2019-02-20T00:47:19.466Z,6.04
2019-02-20T00:49:49.354Z,6.04
2019-02-20T00:52:35.970Z,6.03
2019-02-20T00:55:04.252Z,6.04
2019-02-20T00:57:50.639Z,6.03
2019-02-20T01:00:37.264Z,6.02
2019-02-20T01:03:32.972Z,6.01
2019-02-20T01:06:19.393Z,5.99
2019-02-20T01:09:05.758Z,5.99
2019-02-20T01:11:53.089Z,6.05
2019-02-20T01:14:39.660Z,6.06
2019-02-20T01:19:40.354Z,6.07
2019-02-20T01:22:12.064Z,6.14
2019-02-20T01:25:08.307Z,6.19
2019-02-20T01:30:19.161Z,6.28
2019-02-20T01:32:46.786Z,6.28
2019-02-20T01:35:14.550Z,6.32
2019-02-20T01:38:01.216Z,6.38
2019-02-20T01:40:47.577Z,6.41
2019-02-20T01:45:49.756Z,6.44
2019-02-20T01:48:17.408Z,6.47
2019-02-20T01:50:45.170Z,6.48
2019-02-20T01:53:31.534Z,6.48
2019-02-20T01:56:17.960Z,6.54
2019-02-20T01:58:45.941Z,6.54
2019-02-20T02:01:13.605Z,6.58
2019-02-20T02:06:15.570Z,6.63
2019-02-20T02:09:01.932Z,6.65
2019-02-20T02:11:48.339Z,6.66
2019-02-20T02:14:15.934Z,6.65
2019-02-20T02:17:02.306Z,6.65
2019-02-20T02:19:29.893Z,6.66
2019-02-20T02:21:57.569Z,6.66
2019-02-20T02:24:25.224Z,6.66
2019-02-20T02:26:52.881Z,6.66
2019-02-20T02:29:20.536Z,6.66
2019-02-20T02:32:06.904Z,6.65
2019-02-20T02:34:34.459Z,6.65
2019-02-20T02:39:53.385Z,6.65
2019-02-20T02:42:21.040Z,6.62
2019-02-20T02:44:48.614Z,6.61
2019-02-20T02:47:17.915Z,6.61
2019-02-20T02:49:45.454Z,6.60
2019-02-20T02:52:13.023Z,6.59
2019-02-20T02:54:59.419Z,6.56
2019-02-20T02:57:27.088Z,6.56
2019-02-20T03:00:13.880Z,6.48
2019-02-20T03:02:41.477Z,6.48
2019-02-20T03:05:09.421Z,6.46
2019-02-20T03:07:55.730Z,6.44
2019-02-20T03:10:23.387Z,6.44
2019-02-20T03:12:51.297Z,6.44
2019-02-20T03:15:19.071Z,6.44
2019-02-20T03:17:46.686Z,6.44
2019-02-20T03:20:14.203Z,6.45
2019-02-20T03:22:41.817Z,6.46
2019-02-20T03:25:28.146Z,6.46
2019-02-20T03:27:55.759Z,6.47
2019-02-20T03:30:23.337Z,6.48
2019-02-20T03:33:09.687Z,6.47
2019-02-20T03:35:37.253Z,6.46
2019-02-20T03:38:04.939Z,6.46
2019-02-20T03:40:51.321Z,6.46
2019-02-20T03:43:19.075Z,6.44
2019-02-20T03:46:05.774Z,6.43
2019-02-20T03:51:06.076Z,6.41
2019-02-20T03:53:34.247Z,6.40
2019-02-20T03:56:20.732Z,6.38
2019-02-20T03:59:07.152Z,6.38
2019-02-20T04:01:35.029Z,6.38
2019-02-20T04:04:21.404Z,6.38
2019-02-20T04:12:14.421Z,6.37
2019-02-20T04:15:01.119Z,6.36
2019-02-20T04:20:02.045Z,6.38
2019-02-20T04:22:50.349Z,6.39
2019-02-20T04:25:18.121Z,6.38
2019-02-20T04:28:04.649Z,6.39
2019-02-20T04:30:32.869Z,6.39
2019-02-20T04:33:19.610Z,6.39
2019-02-20T04:36:05.995Z,6.39
2019-02-20T04:38:33.768Z,6.39
2019-02-20T04:41:20.161Z,6.40
2019-02-20T04:43:48.009Z,6.40
2019-02-20T04:46:16.186Z,6.41
2019-02-20T04:49:02.671Z,6.41
2019-02-20T04:51:30.459Z,6.40
2019-02-20T04:54:17.168Z,6.40
2019-02-20T04:59:31.751Z,6.39
2019-02-20T05:05:04.937Z,6.40
2019-02-20T05:07:33.057Z,6.39
2019-02-20T05:10:21.142Z,6.39
2019-02-20T05:13:00.897Z,6.38
2019-02-20T05:15:18.414Z,6.37
2019-02-20T05:18:04.823Z,6.37
2019-02-20T05:20:32.579Z,6.37
2019-02-20T05:26:05.561Z,6.37
2019-02-20T05:28:51.943Z,6.37
2019-02-20T05:31:19.672Z,6.37
2019-02-20T05:34:06.154Z,6.38
2019-02-20T05:36:33.878Z,6.39
2019-02-20T05:39:20.693Z,6.40
2019-02-20T05:44:40.256Z,6.40
2019-02-20T05:47:08.013Z,6.40
2019-02-20T05:49:54.481Z,6.41
2019-02-20T05:55:29.113Z,6.41
2019-02-20T06:01:02.059Z,6.40
2019-02-20T06:03:29.808Z,6.39
2019-02-20T06:06:16.277Z,6.37
2019-02-20T06:08:46.576Z,6.37
2019-02-20T06:11:33.020Z,6.30
2019-02-20T06:14:00.717Z,6.30
2019-02-20T06:16:47.194Z,6.26
2019-02-20T06:19:15.393Z,6.20
2019-02-20T06:22:01.776Z,6.20
2019-02-20T06:24:29.937Z,6.18
2019-02-20T06:26:57.763Z,6.16
2019-02-20T06:29:44.176Z,6.16
2019-02-20T06:32:11.973Z,6.10
2019-02-20T06:34:58.394Z,6.06
2019-02-20T06:37:26.144Z,6.02
2019-02-20T06:40:12.913Z,6.02
2019-02-20T06:42:40.692Z,5.97
2019-02-20T06:47:54.701Z,5.95
2019-02-20T06:50:22.733Z,5.95
2019-02-20T06:52:50.856Z,5.96
2019-02-20T06:55:37.273Z,6.00
2019-02-20T06:58:05.302Z,6.01
2019-02-20T07:00:33.051Z,6.01
2019-02-20T07:03:00.744Z,6.02
2019-02-20T07:05:28.758Z,6.01
2019-02-20T07:08:15.179Z,6.01
2019-02-20T07:10:43.218Z,6.01
2019-02-20T07:13:29.674Z,6.02
2019-02-20T07:16:16.139Z,6.02
2019-02-20T07:18:44.442Z,6.06
2019-02-20T07:24:17.346Z,6.10
2019-02-20T07:26:45.384Z,6.17
2019-02-20T07:29:13.092Z,6.24
2019-02-20T07:31:40.837Z,6.24
2019-02-20T07:34:27.656Z,6.29
2019-02-20T07:36:55.416Z,6.41
2019-02-20T07:39:41.837Z,6.41
2019-02-20T07:45:01.801Z,6.57
2019-02-20T07:47:29.480Z,6.74
2019-02-20T07:50:15.956Z,6.74
2019-02-20T07:52:43.747Z,6.83
2019-02-20T07:55:30.217Z,6.98
2019-02-20T08:05:39.002Z,7.25
2019-02-20T08:08:07.092Z,7.30
2019-02-20T08:10:53.570Z,7.45
2019-02-20T08:15:56.592Z,7.64
2019-02-20T08:18:24.365Z,7.73
2019-02-20T08:20:52.438Z,7.73
2019-02-20T08:23:20.125Z,7.80
2019-02-20T08:26:02.006Z,7.89
2019-02-20T08:28:29.976Z,7.97
2019-02-20T08:30:57.730Z,8.08
2019-02-20T08:33:27.232Z,8.29
2019-02-20T08:35:55.262Z,8.29
2019-02-20T08:38:23.018Z,8.38
2019-02-20T08:40:50.671Z,8.44
2019-02-20T08:43:18.430Z,8.49
2019-02-20T08:45:48.677Z,8.58
2019-02-20T08:48:18.407Z,8.66
2019-02-20T08:50:46.072Z,8.75
2019-02-20T08:53:14.707Z,8.89
2019-02-20T08:55:42.692Z,9.01
2019-02-20T08:58:10.375Z,9.01
2019-02-20T09:00:38.125Z,9.40
2019-02-20T09:03:07.259Z,9.75
2019-02-20T09:05:37.232Z,9.75
2019-02-20T09:08:05.418Z,10.10
2019-02-20T09:10:33.359Z,10.36
2019-02-20T09:13:01.333Z,10.45
2019-02-20T09:15:29.380Z,10.51
2019-02-20T09:17:57.349Z,10.50
2019-02-20T09:20:25.140Z,10.46
2019-02-20T09:22:55.295Z,10.40
2019-02-20T09:25:25.856Z,10.40
2019-02-20T09:27:53.553Z,10.41
2019-02-20T09:30:28.305Z,10.48
2019-02-20T09:32:53.750Z,10.48
2019-02-20T09:35:23.266Z,10.71
2019-02-20T09:37:51.819Z,10.81
2019-02-20T09:40:19.788Z,10.81
2019-02-20T09:42:47.491Z,10.86
2019-02-20T09:45:21.911Z,10.89
2019-02-20T09:47:51.144Z,10.90
2019-02-20T09:50:18.821Z,10.94
2019-02-20T09:52:52.457Z,10.93
2019-02-20T09:55:18.623Z,10.91
2019-02-20T09:57:52.408Z,10.94
2019-02-20T10:00:28.169Z,10.94
2019-02-20T10:02:55.914Z,10.90
2019-02-20T10:05:23.677Z,10.92
2019-02-20T10:07:51.744Z,10.92
2019-02-20T10:10:19.542Z,11.04
2019-02-20T10:12:49.762Z,11.04
2019-02-20T10:15:19.095Z,11.12
2019-02-20T10:17:46.775Z,11.19
2019-02-20T10:20:15.998Z,11.16
2019-02-20T10:22:44.215Z,11.16
2019-02-20T10:25:24.286Z,11.18
2019-02-20T10:27:52.222Z,11.26
2019-02-20T10:30:20.847Z,11.48
2019-02-20T10:32:48.594Z,11.52
2019-02-20T10:35:16.579Z,11.55
2019-02-20T10:37:44.367Z,11.55
2019-02-20T10:40:12.088Z,11.55
2019-02-20T10:42:41.165Z,11.55
2019-02-20T10:45:08.902Z,11.55
2019-02-20T10:47:36.642Z,11.56
2019-02-20T10:50:15.893Z,11.61
2019-02-20T10:52:43.646Z,11.66
2019-02-20T10:55:14.631Z,11.67
2019-02-20T10:57:42.367Z,11.59
2019-02-20T11:00:28.853Z,11.52
2019-02-20T11:02:56.872Z,11.54
2019-02-20T11:05:24.591Z,11.58
2019-02-20T11:07:52.375Z,11.58
2019-02-20T11:10:20.369Z,11.58
2019-02-20T11:12:50.109Z,11.66
2019-02-20T11:15:18.323Z,12.05
2019-02-20T11:17:47.359Z,12.05
2019-02-20T11:20:15.079Z,12.27
2019-02-20T11:22:45.964Z,12.48
2019-02-20T11:25:18.056Z,13.08
2019-02-20T11:27:48.561Z,13.08
2019-02-20T11:30:16.347Z,13.42
2019-02-20T11:32:45.434Z,13.51
2019-02-20T11:35:13.235Z,13.57
2019-02-20T11:37:43.535Z,13.49
2019-02-20T11:40:11.849Z,13.41
2019-02-20T11:42:42.354Z,13.31
2019-02-20T11:45:13.799Z,13.21
2019-02-20T11:47:41.868Z,13.16
2019-02-20T11:50:11.829Z,13.17
2019-02-20T11:52:39.600Z,13.26
2019-02-20T11:55:09.935Z,13.26
2019-02-20T11:57:37.726Z,13.35
2019-02-20T12:00:07.403Z,13.09
2019-02-20T12:02:37.569Z,13.09
2019-02-20T12:05:04.820Z,12.83
2019-02-20T12:07:33.634Z,12.83
2019-02-20T12:10:03.204Z,12.77
2019-02-20T12:12:31.314Z,12.81
2019-02-20T12:14:59.030Z,12.71
2019-02-20T12:17:26.887Z,12.75
2019-02-20T12:19:57.725Z,12.75
2019-02-20T12:22:25.717Z,12.93
2019-02-20T12:24:55.233Z,13.01
2019-02-20T12:27:25.938Z,13.07
2019-02-20T12:29:53.909Z,13.07
2019-02-20T12:32:21.674Z,13.23
2019-02-20T12:34:51.269Z,13.34
2019-02-20T12:37:19.305Z,14.41
2019-02-20T12:39:50.056Z,14.41
2019-02-20T12:42:17.737Z,14.39
2019-02-20T12:44:45.790Z,13.97
2019-02-20T12:47:13.529Z,13.61
2019-02-20T12:49:41.259Z,13.33
2019-02-20T12:52:09.322Z,13.33
2019-02-20T12:54:37.300Z,13.22
2019-02-20T12:57:05.104Z,13.21
2019-02-20T12:59:33.133Z,13.21
2019-02-20T13:02:00.819Z,13.28
2019-02-20T13:04:28.585Z,13.14
2019-02-20T13:06:59.573Z,13.20
2019-02-20T13:09:31.965Z,13.20
2019-02-20T13:11:59.999Z,13.70
2019-02-20T13:14:27.753Z,13.91
2019-02-20T13:16:55.479Z,13.91
2019-02-20T13:19:28.199Z,14.16
2019-02-20T13:21:56.234Z,14.38
2019-02-20T13:24:23.961Z,14.38
2019-02-20T13:26:53.138Z,14.69
2019-02-20T13:29:23.495Z,14.80
2019-02-20T13:31:52.145Z,14.80
2019-02-20T13:34:20.517Z,14.73
2019-02-20T13:36:49.495Z,14.53
2019-02-20T13:39:20.421Z,14.53
2019-02-20T13:41:48.498Z,14.38
2019-02-20T13:44:16.180Z,14.26
2019-02-20T13:46:44.813Z,14.17
2019-02-20T13:49:13.178Z,14.23
2019-02-20T13:51:44.497Z,14.23
2019-02-20T13:54:19.075Z,14.23
2019-02-20T13:56:44.453Z,14.23
2019-02-20T13:59:13.401Z,14.25
2019-02-20T14:01:41.097Z,14.19
2019-02-20T14:04:11.095Z,14.19
2019-02-20T14:06:38.815Z,13.91
2019-02-20T14:09:09.066Z,13.91
2019-02-20T14:11:40.162Z,13.83
2019-02-20T14:14:08.984Z,13.77
2019-02-20T14:16:40.752Z,13.70
2019-02-20T14:19:09.170Z,13.66
2019-02-20T14:21:42.884Z,13.66
2019-02-20T14:24:10.662Z,13.63
2019-02-20T14:26:38.673Z,13.62
2019-02-20T14:29:08.042Z,13.66
2019-02-20T14:31:40.437Z,13.66
2019-02-20T14:34:10.102Z,13.71
2019-02-20T14:36:40.930Z,13.66
2019-02-20T14:39:08.695Z,13.66
2019-02-20T14:41:40.026Z,13.43
2019-02-20T14:44:09.961Z,13.38
2019-02-20T14:46:39.206Z,13.39
2019-02-20T14:49:09.974Z,13.39
2019-02-20T14:51:43.805Z,13.48
2019-02-20T14:54:11.576Z,13.73
2019-02-20T14:56:39.569Z,13.73
2019-02-20T14:59:09.875Z,13.73
2019-02-20T15:01:37.608Z,13.66
2019-02-20T15:04:05.838Z,13.66
2019-02-20T15:06:35.711Z,13.59
2019-02-20T15:09:05.398Z,13.44
2019-02-20T15:11:33.352Z,13.34
2019-02-20T15:14:01.273Z,13.34
2019-02-20T15:16:31.111Z,13.25
2019-02-20T15:19:02.574Z,13.18
2019-02-20T15:21:30.592Z,12.97
2019-02-20T15:24:07.137Z,12.97
2019-02-20T15:26:32.464Z,12.71
2019-02-20T15:29:05.732Z,12.67
2019-02-20T15:31:35.263Z,12.69
2019-02-20T15:34:04.934Z,12.69
2019-02-20T15:36:32.773Z,12.82
2019-02-20T15:39:00.824Z,12.82
2019-02-20T15:41:31.775Z,12.85
2019-02-20T15:44:00.634Z,12.89
2019-02-20T15:46:28.729Z,12.88
2019-02-20T15:48:57.758Z,12.82
2019-02-20T15:51:32.673Z,12.73
2019-02-20T15:54:03.339Z,12.73
2019-02-20T15:56:33.801Z,12.52
2019-02-20T15:59:02.680Z,12.41
2019-02-20T16:01:30.659Z,12.41
2019-02-20T16:04:00.200Z,12.31
2019-02-20T16:06:30.239Z,12.22
2019-02-20T16:08:58.673Z,12.15
2019-02-20T16:11:27.660Z,12.05
2019-02-20T16:13:55.414Z,12.02
2019-02-20T16:16:28.233Z,12.02
2019-02-20T16:18:56.358Z,11.89
2019-02-20T16:21:24.302Z,11.81
2019-02-20T16:23:52.302Z,11.74
2019-02-20T16:26:20.018Z,11.74
2019-02-20T16:28:47.734Z,11.65
2019-02-20T16:31:18.451Z,11.57
2019-02-20T16:33:46.215Z,11.49
2019-02-20T16:36:13.875Z,11.35
2019-02-20T16:38:44.563Z,11.35
2019-02-20T16:41:12.266Z,11.25
2019-02-20T16:43:40.006Z,11.21
2019-02-20T16:46:08.066Z,11.17
2019-02-20T16:48:39.069Z,11.17
2019-02-20T16:51:12.842Z,11.07
2019-02-20T16:53:45.569Z,11.07
2019-02-20T16:56:13.322Z,11.03
2019-02-20T16:58:43.493Z,10.93
2019-02-20T17:01:14.575Z,10.93
2019-02-20T17:03:42.259Z,10.89
2019-02-20T17:06:10.006Z,10.85
2019-02-20T17:08:38.248Z,10.81
2019-02-20T17:11:05.967Z,10.78
2019-02-20T17:13:33.978Z,10.73
2019-02-20T17:16:04.760Z,10.68
2019-02-20T17:18:32.543Z,10.51
2019-02-20T17:21:02.606Z,10.51
2019-02-20T17:23:32.022Z,10.35
2019-02-20T17:25:59.794Z,10.30
2019-02-20T17:28:27.506Z,10.25
2019-02-20T17:30:58.574Z,10.25
2019-02-20T17:33:26.780Z,10.23
2019-02-20T17:35:54.542Z,10.21
2019-02-20T17:38:22.619Z,10.20
2019-02-20T17:40:50.896Z,10.20
2019-02-20T17:43:18.579Z,10.20
2019-02-20T17:45:46.635Z,10.20
2019-02-20T17:48:14.396Z,10.15
2019-02-20T17:50:42.111Z,10.15
2019-02-20T17:53:10.143Z,10.07
2019-02-20T17:55:37.908Z,10.07
2019-02-20T17:58:15.255Z,10.04
2019-02-20T18:00:41.487Z,9.96
2019-02-20T18:03:10.143Z,9.96
2019-02-20T18:05:41.012Z,9.89
2019-02-20T18:08:09.035Z,9.89
2019-02-20T18:10:42.755Z,9.83
2019-02-20T18:13:12.881Z,9.79
2019-02-20T18:15:46.229Z,9.68
2019-02-20T18:18:18.119Z,9.68
2019-02-20T18:20:43.501Z,9.65
2019-02-20T18:23:12.760Z,9.56
2019-02-20T18:25:40.438Z,9.53
2019-02-20T18:28:08.190Z,9.53
2019-02-20T18:30:45.363Z,9.43
2019-02-20T18:33:14.195Z,9.38
2019-02-20T18:35:48.021Z,9.31
2019-02-20T18:38:15.770Z,9.31
2019-02-20T18:40:52.470Z,9.22
2019-02-20T18:43:16.185Z,9.22
2019-02-20T18:45:46.160Z,9.18
2019-02-20T18:48:22.072Z,9.10
2019-02-20T18:50:51.314Z,9.00
2019-02-20T18:53:19.059Z,8.89
2019-02-20T18:55:46.739Z,8.83
2019-02-20T18:58:14.793Z,8.78
2019-02-20T19:00:45.643Z,8.73
2019-02-20T19:03:14.560Z,8.62
2019-02-20T19:05:42.624Z,8.62
2019-02-20T19:08:10.314Z,8.54
2019-02-20T19:10:38.048Z,8.54
2019-02-20T19:13:06.217Z,8.49
2019-02-20T19:15:36.707Z,8.39
2019-02-20T19:18:05.788Z,8.39
2019-02-20T19:20:34.599Z,8.29
2019-02-20T19:23:06.871Z,8.20
2019-02-20T19:25:34.863Z,8.17
2019-02-20T19:28:05.694Z,8.17
2019-02-20T19:30:37.162Z,8.25
2019-02-20T19:33:05.210Z,8.25
2019-02-20T19:35:34.375Z,8.31
2019-02-20T19:38:06.626Z,8.34
2019-02-20T19:40:35.967Z,8.34
2019-02-20T19:43:08.103Z,8.34
2019-02-20T19:45:39.346Z,8.34
2019-02-20T19:48:07.108Z,8.32
2019-02-20T19:50:36.787Z,8.28
2019-02-20T19:53:04.806Z,8.28
2019-02-20T19:55:33.611Z,8.25
2019-02-20T19:58:01.383Z,8.25
2019-02-20T20:00:29.432Z,8.23
2019-02-20T20:03:02.243Z,8.23
2019-02-20T20:05:32.457Z,8.22
2019-02-20T20:08:00.025Z,8.22
2019-02-20T20:10:27.727Z,8.12
2019-02-20T20:12:55.495Z,8.12
2019-02-20T20:15:23.518Z,8.05
2019-02-20T20:17:51.283Z,7.98
2019-02-20T20:20:19.012Z,7.93
2019-02-20T20:22:51.869Z,7.89
2019-02-20T20:25:19.630Z,7.89
2019-02-20T20:27:50.578Z,7.87
2019-02-20T20:30:18.349Z,7.83
2019-02-20T20:32:53.819Z,7.83
2019-02-20T20:35:17.657Z,7.82
2019-02-20T20:37:49.198Z,7.82
2019-02-20T20:40:35.696Z,7.81
2019-02-20T20:43:22.093Z,7.81
2019-02-20T20:46:13.240Z,7.81
2019-02-20T20:51:58.476Z,7.81
2019-02-20T20:54:15.550Z,7.79
2019-02-20T20:57:02.020Z,7.79
2019-02-20T21:02:35.040Z,7.80
2019-02-20T21:08:20.311Z,7.74
2019-02-20T21:13:31.751Z,7.73
2019-02-20T21:18:51.375Z,7.65
2019-02-20T21:21:19.079Z,7.65
2019-02-20T21:24:05.974Z,7.56
2019-02-20T21:26:48.605Z,7.56
2019-02-20T21:29:28.485Z,7.49
2019-02-20T21:35:15.546Z,7.29
2019-02-20T21:40:36.601Z,7.20
2019-02-20T21:46:28.211Z,7.16
2019-02-20T21:51:47.888Z,6.97
2019-02-20T21:54:34.286Z,6.93
2019-02-20T21:57:20.741Z,6.90
2019-02-20T22:00:16.645Z,6.86
2019-02-20T22:03:03.107Z,6.83
2019-02-20T22:08:23.537Z,6.84
2019-02-20T22:14:15.130Z,6.84
2019-02-20T22:19:48.435Z,7.02
2019-02-20T22:25:05.515Z,7.06
2019-02-20T22:27:51.976Z,7.13
2019-02-20T22:30:19.769Z,7.18
2019-02-20T22:33:01.509Z,7.23
2019-02-20T22:35:35.688Z,7.27
2019-02-20T22:40:55.410Z,7.29
2019-02-20T22:46:10.059Z,7.41
2019-02-20T22:48:56.484Z,7.49
2019-02-20T22:54:15.492Z,7.49
2019-02-20T22:59:48.771Z,7.55
2019-02-20T23:11:01.254Z,7.56
2019-02-20T23:16:02.680Z,7.54
2019-02-20T23:18:49.101Z,7.54
2019-02-20T23:24:08.652Z,7.65
2019-02-20T23:26:38.065Z,7.68
2019-02-20T23:31:58.018Z,7.71
2019-02-20T23:34:25.949Z,7.71
2019-02-20T23:36:53.711Z,7.71
2019-02-20T23:39:23.404Z,7.73
2019-02-20T23:42:09.841Z,7.68
2019-02-20T23:44:56.292Z,7.66
2019-02-20T23:53:02.394Z,7.56
2019-02-20T23:58:22.392Z,7.55
